sensor_id;sensor_type;location;lat;lon;timestamp;pressure;altitude;pressure_sealevel;temperature;humidity
40155;BME280;25875;48.202;16.334;2023-07-20T00:02:02;98494.56;;;23.25;45.24
40155;BME280;25875;48.202;16.334;2023-07-20T00:04:30;98506.59;;;23.23;45.54
40155;BME280;25875;48.202;16.334;2023-07-20T00:06:57;98498.97;;;23.26;45.23
40155;BME280;25875;48.202;16.334;2023-07-20T00:09:24;98492.88;;;23.24;44.97
40155;BME280;25875;48.202;16.334;2023-07-20T00:11:52;98483.84;;;23.17;44.65
40155;BME280;25875;48.202;16.334;2023-07-20T00:14:19;98488.03;;;23.20;45.34
40155;BME280;25875;48.202;16.334;2023-07-20T00:16:47;98478.53;;;23.24;45.25
40155;BME280;25875;48.202;16.334;2023-07-20T00:19:21;98450.00;;;23.07;44.96
40155;BME280;25875;48.202;16.334;2023-07-20T00:21:48;98488.88;;;23.20;45.02
40155;BME280;25875;48.202;16.334;2023-07-20T00:24:14;98489.06;;;23.19;45.45
40155;BME280;25875;48.202;16.334;2023-07-20T00:26:41;98483.94;;;23.09;44.32
40155;BME280;25875;48.202;16.334;2023-07-20T00:29:10;98498.84;;;23.20;45.23
40155;BME280;25875;48.202;16.334;2023-07-20T00:31:37;98500.53;;;23.21;45.21
40155;BME280;25875;48.202;16.334;2023-07-20T00:34:04;98448.69;;;22.88;44.95
40155;BME280;25875;48.202;16.334;2023-07-20T00:36:30;98506.03;;;23.13;45.06
40155;BME280;25875;48.202;16.334;2023-07-20T00:38:57;98480.19;;;22.95;45.04
40155;BME280;25875;48.202;16.334;2023-07-20T00:41:24;98512.25;;;23.13;45.88
40155;BME280;25875;48.202;16.334;2023-07-20T00:43:54;98523.81;;;23.07;45.40
40155;BME280;25875;48.202;16.334;2023-07-20T00:46:24;98528.38;;;23.07;45.93
40155;BME280;25875;48.202;16.334;2023-07-20T00:48:51;98521.28;;;23.05;46.70
40155;BME280;25875;48.202;16.334;2023-07-20T00:51:19;98524.19;;;23.04;46.70
40155;BME280;25875;48.202;16.334;2023-07-20T00:53:46;98545.31;;;23.00;47.27
40155;BME280;25875;48.202;16.334;2023-07-20T00:56:14;98537.78;;;22.96;47.37
40155;BME280;25875;48.202;16.334;2023-07-20T00:58:41;98541.88;;;23.07;47.39
40155;BME280;25875;48.202;16.334;2023-07-20T01:01:07;98529.00;;;22.94;47.80
40155;BME280;25875;48.202;16.334;2023-07-20T01:03:36;98434.09;;;22.36;47.84
40155;BME280;25875;48.202;16.334;2023-07-20T01:06:09;98519.69;;;22.96;48.27
40155;BME280;25875;48.202;16.334;2023-07-20T01:08:44;98488.47;;;22.94;48.22
40155;BME280;25875;48.202;16.334;2023-07-20T01:11:17;98434.41;;;22.64;47.87
40155;BME280;25875;48.202;16.334;2023-07-20T01:13:50;98489.34;;;23.09;47.95
40155;BME280;25875;48.202;16.334;2023-07-20T01:16:19;98496.59;;;23.09;47.61
40155;BME280;25875;48.202;16.334;2023-07-20T01:18:46;98504.53;;;23.10;47.94
40155;BME280;25875;48.202;16.334;2023-07-20T01:21:18;98433.03;;;22.68;47.35
40155;BME280;25875;48.202;16.334;2023-07-20T01:27:25;98402.41;;;22.53;46.69
40155;BME280;25875;48.202;16.334;2023-07-20T01:30:08;98501.75;;;23.18;47.28
40155;BME280;25875;48.202;16.334;2023-07-20T01:32:44;98508.34;;;23.16;46.87
40155;BME280;25875;48.202;16.334;2023-07-20T01:35:14;98475.63;;;22.96;46.61
40155;BME280;25875;48.202;16.334;2023-07-20T01:37:44;98505.19;;;23.12;46.60
40155;BME280;25875;48.202;16.334;2023-07-20T01:40:13;98422.41;;;22.67;46.46
40155;BME280;25875;48.202;16.334;2023-07-20T01:42:44;98503.78;;;23.16;46.24
40155;BME280;25875;48.202;16.334;2023-07-20T01:45:11;98456.22;;;22.78;46.66
40155;BME280;25875;48.202;16.334;2023-07-20T01:47:38;98514.50;;;23.10;46.85
40155;BME280;25875;48.202;16.334;2023-07-20T01:50:07;98265.03;;;21.45;46.90
40155;BME280;25875;48.202;16.334;2023-07-20T01:52:34;98466.59;;;22.89;47.68
40155;BME280;25875;48.202;16.334;2023-07-20T01:55:01;98497.53;;;23.01;47.31
40155;BME280;25875;48.202;16.334;2023-07-20T01:57:29;98491.66;;;22.97;47.54
40155;BME280;25875;48.202;16.334;2023-07-20T01:59:56;98498.38;;;23.01;47.64
40155;BME280;25875;48.202;16.334;2023-07-20T02:02:25;98466.84;;;22.79;48.07
40155;BME280;25875;48.202;16.334;2023-07-20T02:04:53;98504.13;;;22.98;47.79
40155;BME280;25875;48.202;16.334;2023-07-20T02:07:21;98498.44;;;22.93;47.74
40155;BME280;25875;48.202;16.334;2023-07-20T02:09:48;98507.22;;;22.95;48.04
40155;BME280;25875;48.202;16.334;2023-07-20T02:12:14;98460.03;;;22.68;48.43
40155;BME280;25875;48.202;16.334;2023-07-20T02:14:41;98483.34;;;22.84;47.62
40155;BME280;25875;48.202;16.334;2023-07-20T02:17:08;98519.63;;;23.04;47.67
40155;BME280;25875;48.202;16.334;2023-07-20T02:19:37;98493.97;;;22.86;47.74
40155;BME280;25875;48.202;16.334;2023-07-20T02:22:04;98521.84;;;23.01;47.89
40155;BME280;25875;48.202;16.334;2023-07-20T02:24:33;98521.66;;;23.02;48.04
40155;BME280;25875;48.202;16.334;2023-07-20T02:27:00;98533.69;;;23.00;47.33
40155;BME280;25875;48.202;16.334;2023-07-20T02:29:26;98493.47;;;22.67;48.05
40155;BME280;25875;48.202;16.334;2023-07-20T02:31:53;98544.09;;;22.88;47.83
40155;BME280;25875;48.202;16.334;2023-07-20T02:34:20;98530.31;;;22.98;47.86
40155;BME280;25875;48.202;16.334;2023-07-20T02:36:46;98534.81;;;23.05;47.46
40155;BME280;25875;48.202;16.334;2023-07-20T02:39:13;98538.44;;;22.98;47.08
40155;BME280;25875;48.202;16.334;2023-07-20T02:41:41;98543.47;;;23.01;47.10
40155;BME280;25875;48.202;16.334;2023-07-20T02:44:08;98545.03;;;22.95;47.47
40155;BME280;25875;48.202;16.334;2023-07-20T02:46:35;98535.22;;;22.80;47.44
40155;BME280;25875;48.202;16.334;2023-07-20T02:49:02;98540.31;;;22.75;47.12
40155;BME280;25875;48.202;16.334;2023-07-20T02:51:28;98573.63;;;22.90;47.67
40155;BME280;25875;48.202;16.334;2023-07-20T02:53:55;98568.34;;;22.73;48.22
40155;BME280;25875;48.202;16.334;2023-07-20T02:56:22;98577.84;;;22.69;48.58
40155;BME280;25875;48.202;16.334;2023-07-20T02:58:50;98574.47;;;22.67;48.59
40155;BME280;25875;48.202;16.334;2023-07-20T03:01:17;98573.75;;;22.73;48.61
40155;BME280;25875;48.202;16.334;2023-07-20T03:03:44;98573.34;;;22.62;48.85
40155;BME280;25875;48.202;16.334;2023-07-20T03:06:12;98560.41;;;22.49;49.18
40155;BME280;25875;48.202;16.334;2023-07-20T03:08:40;98583.47;;;22.60;49.07
40155;BME280;25875;48.202;16.334;2023-07-20T03:11:12;98589.00;;;22.66;48.83
40155;BME280;25875;48.202;16.334;2023-07-20T03:13:39;98588.72;;;22.53;49.38
40155;BME280;25875;48.202;16.334;2023-07-20T03:16:07;98522.38;;;22.05;49.33
40155;BME280;25875;48.202;16.334;2023-07-20T03:18:36;98615.72;;;22.53;49.07
40155;BME280;25875;48.202;16.334;2023-07-20T03:21:03;98615.91;;;22.52;49.32
40155;BME280;25875;48.202;16.334;2023-07-20T03:23:29;98615.97;;;22.44;49.37
40155;BME280;25875;48.202;16.334;2023-07-20T03:25:56;98609.34;;;22.46;48.81
40155;BME280;25875;48.202;16.334;2023-07-20T03:28:23;98608.88;;;22.42;49.14
40155;BME280;25875;48.202;16.334;2023-07-20T03:30:53;98612.06;;;22.38;48.87
40155;BME280;25875;48.202;16.334;2023-07-20T03:33:21;98623.53;;;22.40;48.93
40155;BME280;25875;48.202;16.334;2023-07-20T03:35:48;98631.81;;;22.47;48.69
40155;BME280;25875;48.202;16.334;2023-07-20T03:38:14;98629.28;;;22.37;48.89
40155;BME280;25875;48.202;16.334;2023-07-20T03:40:49;98639.72;;;22.48;48.52
40155;BME280;25875;48.202;16.334;2023-07-20T03:43:15;98640.09;;;22.37;48.89
40155;BME280;25875;48.202;16.334;2023-07-20T03:45:42;98637.22;;;22.38;49.00
40155;BME280;25875;48.202;16.334;2023-07-20T03:48:09;98616.41;;;22.16;49.39
40155;BME280;25875;48.202;16.334;2023-07-20T03:50:37;98634.50;;;22.38;48.90
40155;BME280;25875;48.202;16.334;2023-07-20T03:53:04;98626.78;;;22.35;49.27
40155;BME280;25875;48.202;16.334;2023-07-20T03:55:31;98642.63;;;22.38;49.02
40155;BME280;25875;48.202;16.334;2023-07-20T03:57:57;98635.69;;;22.44;48.97
40155;BME280;25875;48.202;16.334;2023-07-20T04:00:25;98611.63;;;22.26;49.09
40155;BME280;25875;48.202;16.334;2023-07-20T04:02:52;98644.66;;;22.36;49.26
40155;BME280;25875;48.202;16.334;2023-07-20T04:05:19;98642.44;;;22.40;49.63
40155;BME280;25875;48.202;16.334;2023-07-20T04:07:47;98648.53;;;22.42;49.34
40155;BME280;25875;48.202;16.334;2023-07-20T04:10:14;98653.59;;;22.37;49.39
40155;BME280;25875;48.202;16.334;2023-07-20T04:12:41;98657.13;;;22.37;49.44
40155;BME280;25875;48.202;16.334;2023-07-20T04:15:09;98635.63;;;22.21;49.59
40155;BME280;25875;48.202;16.334;2023-07-20T04:17:36;98600.16;;;21.93;49.27
40155;BME280;25875;48.202;16.334;2023-07-20T04:20:03;98673.31;;;22.37;49.79
40155;BME280;25875;48.202;16.334;2023-07-20T04:22:31;98614.97;;;21.97;49.98
40155;BME280;25875;48.202;16.334;2023-07-20T04:24:59;98676.38;;;22.34;50.11
40155;BME280;25875;48.202;16.334;2023-07-20T04:27:26;98680.56;;;22.45;50.33
40155;BME280;25875;48.202;16.334;2023-07-20T04:29:53;98682.44;;;22.36;50.17
40155;BME280;25875;48.202;16.334;2023-07-20T04:32:19;98688.19;;;22.33;50.63
40155;BME280;25875;48.202;16.334;2023-07-20T04:34:46;98683.97;;;22.31;50.65
40155;BME280;25875;48.202;16.334;2023-07-20T04:37:13;98692.09;;;22.31;50.62
40155;BME280;25875;48.202;16.334;2023-07-20T04:39:40;98689.03;;;22.34;50.62
40155;BME280;25875;48.202;16.334;2023-07-20T04:42:08;98688.84;;;22.35;51.22
40155;BME280;25875;48.202;16.334;2023-07-20T04:44:35;98657.22;;;22.21;50.57
40155;BME280;25875;48.202;16.334;2023-07-20T04:47:02;98678.75;;;22.29;51.07
40155;BME280;25875;48.202;16.334;2023-07-20T04:49:29;98627.44;;;21.98;51.47
40155;BME280;25875;48.202;16.334;2023-07-20T04:51:55;98685.00;;;22.30;51.14
40155;BME280;25875;48.202;16.334;2023-07-20T04:54:22;98682.25;;;22.38;51.08
40155;BME280;25875;48.202;16.334;2023-07-20T04:56:49;98683.13;;;22.30;51.46
40155;BME280;25875;48.202;16.334;2023-07-20T04:59:17;98694.16;;;22.21;51.65
40155;BME280;25875;48.202;16.334;2023-07-20T05:01:44;98684.84;;;22.23;51.84
40155;BME280;25875;48.202;16.334;2023-07-20T05:04:11;98688.38;;;22.32;51.30
40155;BME280;25875;48.202;16.334;2023-07-20T05:06:37;98688.00;;;22.35;51.52
40155;BME280;25875;48.202;16.334;2023-07-20T05:09:04;98668.66;;;22.23;51.56
40155;BME280;25875;48.202;16.334;2023-07-20T05:11:32;98686.84;;;22.29;51.71
40155;BME280;25875;48.202;16.334;2023-07-20T05:13:59;98693.75;;;22.32;51.66
40155;BME280;25875;48.202;16.334;2023-07-20T05:16:27;98637.84;;;22.09;51.69
40155;BME280;25875;48.202;16.334;2023-07-20T05:18:54;98699.34;;;22.30;52.00
40155;BME280;25875;48.202;16.334;2023-07-20T05:21:22;98703.53;;;22.33;51.96
40155;BME280;25875;48.202;16.334;2023-07-20T05:23:49;98703.19;;;22.44;51.67
40155;BME280;25875;48.202;16.334;2023-07-20T05:26:16;98681.97;;;22.25;52.03
40155;BME280;25875;48.202;16.334;2023-07-20T05:28:43;98681.47;;;22.29;51.76
40155;BME280;25875;48.202;16.334;2023-07-20T05:31:09;98706.69;;;22.53;51.34
40155;BME280;25875;48.202;16.334;2023-07-20T05:33:38;98698.16;;;22.41;51.92
40155;BME280;25875;48.202;16.334;2023-07-20T05:36:04;98676.59;;;22.25;51.87
40155;BME280;25875;48.202;16.334;2023-07-20T05:38:31;98696.59;;;22.47;52.04
40155;BME280;25875;48.202;16.334;2023-07-20T05:40:59;98703.31;;;22.51;52.08
40155;BME280;25875;48.202;16.334;2023-07-20T05:43:27;98706.88;;;22.51;51.91
40155;BME280;25875;48.202;16.334;2023-07-20T05:45:54;98710.75;;;22.49;51.72
40155;BME280;25875;48.202;16.334;2023-07-20T05:48:20;98712.28;;;22.51;51.69
40155;BME280;25875;48.202;16.334;2023-07-20T05:50:49;98682.78;;;22.41;51.53
40155;BME280;25875;48.202;16.334;2023-07-20T05:53:15;98710.25;;;22.53;51.52
40155;BME280;25875;48.202;16.334;2023-07-20T05:55:42;98716.16;;;22.57;51.19
40155;BME280;25875;48.202;16.334;2023-07-20T05:58:09;98710.88;;;22.63;51.50
40155;BME280;25875;48.202;16.334;2023-07-20T06:00:35;98710.53;;;22.66;51.63
40155;BME280;25875;48.202;16.334;2023-07-20T06:03:03;98645.72;;;22.27;51.37
40155;BME280;25875;48.202;16.334;2023-07-20T06:05:30;98714.63;;;22.62;51.04
40155;BME280;25875;48.202;16.334;2023-07-20T06:07:58;98716.44;;;22.70;50.76
40155;BME280;25875;48.202;16.334;2023-07-20T06:10:25;98716.78;;;22.67;50.88
40155;BME280;25875;48.202;16.334;2023-07-20T06:12:52;98710.38;;;22.68;50.56
40155;BME280;25875;48.202;16.334;2023-07-20T06:15:27;98711.34;;;22.75;50.79
40155;BME280;25875;48.202;16.334;2023-07-20T06:17:54;98706.59;;;22.77;50.64
40155;BME280;25875;48.202;16.334;2023-07-20T06:20:22;98709.28;;;22.77;50.22
40155;BME280;25875;48.202;16.334;2023-07-20T06:22:49;98715.78;;;22.91;50.77
40155;BME280;25875;48.202;16.334;2023-07-20T06:25:18;98715.00;;;22.82;49.91
40155;BME280;25875;48.202;16.334;2023-07-20T06:27:46;98708.88;;;22.88;49.80
40155;BME280;25875;48.202;16.334;2023-07-20T06:30:12;98665.69;;;22.57;49.54
40155;BME280;25875;48.202;16.334;2023-07-20T06:32:39;98717.31;;;22.93;49.85
40155;BME280;25875;48.202;16.334;2023-07-20T06:35:06;98715.25;;;22.95;49.65
40155;BME280;25875;48.202;16.334;2023-07-20T06:37:33;98697.66;;;22.77;49.73
40155;BME280;25875;48.202;16.334;2023-07-20T06:40:01;98732.50;;;22.94;49.82
40155;BME280;25875;48.202;16.334;2023-07-20T06:42:30;98727.88;;;23.03;50.08
40155;BME280;25875;48.202;16.334;2023-07-20T06:44:57;98728.84;;;23.10;50.01
40155;BME280;25875;48.202;16.334;2023-07-20T06:47:24;98726.75;;;23.20;49.85
40155;BME280;25875;48.202;16.334;2023-07-20T06:49:51;98693.53;;;23.12;49.09
40155;BME280;25875;48.202;16.334;2023-07-20T06:52:18;98722.31;;;23.27;49.41
40155;BME280;25875;48.202;16.334;2023-07-20T06:54:45;98713.22;;;23.20;49.68
40155;BME280;25875;48.202;16.334;2023-07-20T06:57:12;98726.22;;;23.48;49.32
40155;BME280;25875;48.202;16.334;2023-07-20T06:59:40;98715.19;;;23.34;49.05
40155;BME280;25875;48.202;16.334;2023-07-20T07:02:06;98713.00;;;23.30;48.83
40155;BME280;25875;48.202;16.334;2023-07-20T07:04:33;98724.97;;;23.35;48.65
40155;BME280;25875;48.202;16.334;2023-07-20T07:07:00;98718.44;;;23.30;48.37
40155;BME280;25875;48.202;16.334;2023-07-20T07:09:28;98720.09;;;23.31;48.72
40155;BME280;25875;48.202;16.334;2023-07-20T07:11:55;98722.84;;;23.46;49.22
40155;BME280;25875;48.202;16.334;2023-07-20T07:14:21;98715.91;;;23.66;48.40
40155;BME280;25875;48.202;16.334;2023-07-20T07:16:49;98714.91;;;23.82;48.41
40155;BME280;25875;48.202;16.334;2023-07-20T07:19:16;98718.72;;;24.10;48.08
40155;BME280;25875;48.202;16.334;2023-07-20T07:21:43;98702.38;;;24.04;47.14
40155;BME280;25875;48.202;16.334;2023-07-20T07:24:10;98703.59;;;24.16;47.26
40155;BME280;25875;48.202;16.334;2023-07-20T07:26:37;98704.97;;;24.12;47.04
40155;BME280;25875;48.202;16.334;2023-07-20T07:29:04;98708.72;;;24.25;46.92
40155;BME280;25875;48.202;16.334;2023-07-20T07:31:34;98718.44;;;24.05;46.88
40155;BME280;25875;48.202;16.334;2023-07-20T07:34:03;98715.56;;;23.84;47.55
40155;BME280;25875;48.202;16.334;2023-07-20T07:36:30;98725.06;;;24.03;47.40
40155;BME280;25875;48.202;16.334;2023-07-20T07:38:56;98715.44;;;24.00;47.54
40155;BME280;25875;48.202;16.334;2023-07-20T07:41:23;98705.53;;;24.07;47.56
40155;BME280;25875;48.202;16.334;2023-07-20T07:43:50;98716.47;;;24.28;47.79
40155;BME280;25875;48.202;16.334;2023-07-20T07:46:19;98704.22;;;24.47;47.04
40155;BME280;25875;48.202;16.334;2023-07-20T07:48:46;98705.53;;;24.66;47.23
40155;BME280;25875;48.202;16.334;2023-07-20T07:51:14;98712.00;;;24.86;46.70
40155;BME280;25875;48.202;16.334;2023-07-20T07:53:41;98706.78;;;24.85;46.20
40155;BME280;25875;48.202;16.334;2023-07-20T07:56:09;98710.34;;;24.85;46.67
40155;BME280;25875;48.202;16.334;2023-07-20T07:58:35;98707.13;;;24.96;46.31
40155;BME280;25875;48.202;16.334;2023-07-20T08:01:02;98716.09;;;24.97;46.19
40155;BME280;25875;48.202;16.334;2023-07-20T08:03:29;98708.78;;;25.12;46.00
40155;BME280;25875;48.202;16.334;2023-07-20T08:05:56;98703.66;;;25.03;45.99
40155;BME280;25875;48.202;16.334;2023-07-20T08:08:25;98705.19;;;24.90;45.45
40155;BME280;25875;48.202;16.334;2023-07-20T08:10:53;98710.41;;;24.92;46.08
40155;BME280;25875;48.202;16.334;2023-07-20T08:13:20;98680.66;;;24.99;45.41
40155;BME280;25875;48.202;16.334;2023-07-20T08:15:50;98706.00;;;25.27;44.63
40155;BME280;25875;48.202;16.334;2023-07-20T08:18:17;98664.03;;;25.44;44.18
40155;BME280;25875;48.202;16.334;2023-07-20T08:20:44;98677.75;;;25.36;43.54
40155;BME280;25875;48.202;16.334;2023-07-20T08:23:11;98699.63;;;25.35;43.59
40155;BME280;25875;48.202;16.334;2023-07-20T08:25:39;98694.19;;;25.13;43.74
40155;BME280;25875;48.202;16.334;2023-07-20T08:28:09;98658.31;;;24.75;44.23
40155;BME280;25875;48.202;16.334;2023-07-20T08:30:40;98700.22;;;24.94;44.56
40155;BME280;25875;48.202;16.334;2023-07-20T08:33:09;98691.25;;;24.93;45.10
40155;BME280;25875;48.202;16.334;2023-07-20T08:35:36;98699.63;;;24.99;44.78
40155;BME280;25875;48.202;16.334;2023-07-20T08:38:03;98659.16;;;24.76;44.74
40155;BME280;25875;48.202;16.334;2023-07-20T08:40:31;98702.63;;;25.04;45.40
40155;BME280;25875;48.202;16.334;2023-07-20T08:43:00;98715.06;;;24.98;45.05
40155;BME280;25875;48.202;16.334;2023-07-20T08:45:27;98705.91;;;24.99;45.28
40155;BME280;25875;48.202;16.334;2023-07-20T08:47:56;98620.19;;;24.41;44.72
40155;BME280;25875;48.202;16.334;2023-07-20T08:50:26;98697.97;;;24.98;45.30
40155;BME280;25875;48.202;16.334;2023-07-20T08:52:56;98699.28;;;25.02;45.33
40155;BME280;25875;48.202;16.334;2023-07-20T08:55:24;98649.81;;;24.63;46.01
40155;BME280;25875;48.202;16.334;2023-07-20T08:57:54;98713.56;;;24.95;46.15
40155;BME280;25875;48.202;16.334;2023-07-20T09:00:23;98709.19;;;24.94;45.40
40155;BME280;25875;48.202;16.334;2023-07-20T09:02:53;98670.38;;;24.73;45.67
40155;BME280;25875;48.202;16.334;2023-07-20T09:05:21;98715.06;;;24.98;45.62
40155;BME280;25875;48.202;16.334;2023-07-20T09:07:49;98677.44;;;24.88;44.81
40155;BME280;25875;48.202;16.334;2023-07-20T09:10:15;98696.38;;;25.24;44.96
40155;BME280;25875;48.202;16.334;2023-07-20T09:12:43;98699.69;;;25.41;43.93
40155;BME280;25875;48.202;16.334;2023-07-20T09:15:11;98666.41;;;25.54;42.93
40155;BME280;25875;48.202;16.334;2023-07-20T09:17:39;98691.88;;;25.53;42.63
40155;BME280;25875;48.202;16.334;2023-07-20T09:20:11;98702.84;;;25.45;43.51
40155;BME280;25875;48.202;16.334;2023-07-20T09:22:38;98698.41;;;25.37;43.22
40155;BME280;25875;48.202;16.334;2023-07-20T09:25:06;98707.81;;;25.20;43.39
40155;BME280;25875;48.202;16.334;2023-07-20T09:27:38;98706.78;;;25.21;44.61
40155;BME280;25875;48.202;16.334;2023-07-20T09:30:06;98703.75;;;25.31;44.03
40155;BME280;25875;48.202;16.334;2023-07-20T09:32:39;98689.03;;;25.18;43.97
40155;BME280;25875;48.202;16.334;2023-07-20T09:35:12;98703.56;;;25.32;44.02
40155;BME280;25875;48.202;16.334;2023-07-20T09:37:39;98712.91;;;25.30;44.09
40155;BME280;25875;48.202;16.334;2023-07-20T09:40:07;98712.25;;;25.27;44.52
40155;BME280;25875;48.202;16.334;2023-07-20T09:42:35;98706.44;;;25.31;44.20
40155;BME280;25875;48.202;16.334;2023-07-20T09:45:06;98698.38;;;25.16;42.97
40155;BME280;25875;48.202;16.334;2023-07-20T09:47:35;98710.00;;;25.10;42.17
40155;BME280;25875;48.202;16.334;2023-07-20T09:50:05;98684.69;;;25.03;43.13
40155;BME280;25875;48.202;16.334;2023-07-20T09:52:37;98718.06;;;25.03;43.19
40155;BME280;25875;48.202;16.334;2023-07-20T09:55:05;98712.28;;;24.91;42.55
40155;BME280;25875;48.202;16.334;2023-07-20T09:57:33;98707.56;;;25.00;43.79
40155;BME280;25875;48.202;16.334;2023-07-20T10:00:00;98705.03;;;25.13;43.42
40155;BME280;25875;48.202;16.334;2023-07-20T10:02:32;98707.34;;;25.16;42.53
40155;BME280;25875;48.202;16.334;2023-07-20T10:05:02;98708.06;;;25.25;43.08
40155;BME280;25875;48.202;16.334;2023-07-20T10:07:35;98720.75;;;25.39;41.87
40155;BME280;25875;48.202;16.334;2023-07-20T10:10:02;98710.00;;;25.31;41.80
40155;BME280;25875;48.202;16.334;2023-07-20T10:12:31;98686.69;;;25.15;42.16
40155;BME280;25875;48.202;16.334;2023-07-20T10:15:10;98704.66;;;25.38;41.81
40155;BME280;25875;48.202;16.334;2023-07-20T10:17:43;98688.56;;;25.15;41.44
40155;BME280;25875;48.202;16.334;2023-07-20T10:20:16;98717.72;;;25.49;41.56
40155;BME280;25875;48.202;16.334;2023-07-20T10:22:49;98699.44;;;25.36;40.77
40155;BME280;25875;48.202;16.334;2023-07-20T10:25:20;98687.41;;;25.24;40.70
40155;BME280;25875;48.202;16.334;2023-07-20T10:27:49;98619.34;;;24.98;40.24
40155;BME280;25875;48.202;16.334;2023-07-20T10:30:17;98705.13;;;25.41;40.39
40155;BME280;25875;48.202;16.334;2023-07-20T10:32:44;98698.41;;;25.37;40.17
40155;BME280;25875;48.202;16.334;2023-07-20T10:35:22;98695.16;;;25.48;40.20
40155;BME280;25875;48.202;16.334;2023-07-20T10:37:52;98681.25;;;25.58;40.00
40155;BME280;25875;48.202;16.334;2023-07-20T10:40:30;98691.44;;;25.77;39.68
40155;BME280;25875;48.202;16.334;2023-07-20T10:43:03;98671.34;;;25.72;39.70
40155;BME280;25875;48.202;16.334;2023-07-20T10:45:39;98698.75;;;26.05;39.51
40155;BME280;25875;48.202;16.334;2023-07-20T10:48:13;98684.09;;;25.99;39.52
40155;BME280;25875;48.202;16.334;2023-07-20T10:50:40;98688.13;;;26.10;39.60
40155;BME280;25875;48.202;16.334;2023-07-20T10:53:13;98687.13;;;26.17;38.32
40155;BME280;25875;48.202;16.334;2023-07-20T10:55:41;98690.88;;;26.16;37.96
40155;BME280;25875;48.202;16.334;2023-07-20T10:58:10;98626.28;;;26.05;38.35
40155;BME280;25875;48.202;16.334;2023-07-20T11:00:38;98666.94;;;26.33;37.52
40155;BME280;25875;48.202;16.334;2023-07-20T11:03:26;98676.41;;;26.50;37.52
40155;BME280;25875;48.202;16.334;2023-07-20T11:05:53;98668.91;;;26.59;37.02
40155;BME280;25875;48.202;16.334;2023-07-20T11:08:38;98660.03;;;26.78;37.21
40155;BME280;25875;48.202;16.334;2023-07-20T11:11:23;98642.78;;;26.51;37.20
40155;BME280;25875;48.202;16.334;2023-07-20T11:13:54;98665.84;;;26.69;37.27
40155;BME280;25875;48.202;16.334;2023-07-20T11:16:32;98670.84;;;26.65;37.37
40155;BME280;25875;48.202;16.334;2023-07-20T11:18:59;98602.34;;;26.29;36.29
40155;BME280;25875;48.202;16.334;2023-07-20T11:21:26;98665.44;;;26.72;36.42
40155;BME280;25875;48.202;16.334;2023-07-20T11:23:55;98649.53;;;26.69;35.90
40155;BME280;25875;48.202;16.334;2023-07-20T11:26:21;98671.28;;;26.69;36.93
40155;BME280;25875;48.202;16.334;2023-07-20T11:28:49;98656.84;;;26.68;37.15
40155;BME280;25875;48.202;16.334;2023-07-20T11:31:17;98655.63;;;26.77;36.87
40155;BME280;25875;48.202;16.334;2023-07-20T11:33:44;98663.34;;;26.74;36.81
40155;BME280;25875;48.202;16.334;2023-07-20T11:36:10;98655.81;;;26.69;36.93
40155;BME280;25875;48.202;16.334;2023-07-20T11:38:38;98644.94;;;26.69;37.06
40155;BME280;25875;48.202;16.334;2023-07-20T11:41:07;98616.28;;;26.67;36.61
40155;BME280;25875;48.202;16.334;2023-07-20T11:43:34;98646.25;;;26.93;35.75
40155;BME280;25875;48.202;16.334;2023-07-20T11:46:04;98648.78;;;26.95;36.03
40155;BME280;25875;48.202;16.334;2023-07-20T11:48:31;98627.16;;;26.67;35.87
40155;BME280;25875;48.202;16.334;2023-07-20T11:50:58;98650.19;;;26.77;36.23
40155;BME280;25875;48.202;16.334;2023-07-20T11:53:25;98648.97;;;26.93;36.25
40155;BME280;25875;48.202;16.334;2023-07-20T11:55:52;98654.44;;;27.06;35.95
40155;BME280;25875;48.202;16.334;2023-07-20T11:58:20;98652.53;;;27.00;35.63
40155;BME280;25875;48.202;16.334;2023-07-20T12:00:47;98661.31;;;26.89;35.52
40155;BME280;25875;48.202;16.334;2023-07-20T12:03:14;98630.50;;;26.62;35.90
40155;BME280;25875;48.202;16.334;2023-07-20T12:05:41;98638.25;;;26.72;36.36
40155;BME280;25875;48.202;16.334;2023-07-20T12:08:08;98639.75;;;26.81;35.95
40155;BME280;25875;48.202;16.334;2023-07-20T12:10:39;98634.34;;;27.07;35.93
40155;BME280;25875;48.202;16.334;2023-07-20T12:13:09;98647.09;;;26.94;35.51
40155;BME280;25875;48.202;16.334;2023-07-20T12:15:39;98639.53;;;26.82;35.28
40155;BME280;25875;48.202;16.334;2023-07-20T12:18:06;98636.59;;;26.71;35.30
40155;BME280;25875;48.202;16.334;2023-07-20T12:20:34;98597.00;;;26.55;35.97
40155;BME280;25875;48.202;16.334;2023-07-20T12:23:02;98593.75;;;26.86;35.58
40155;BME280;25875;48.202;16.334;2023-07-20T12:25:37;98622.81;;;26.79;35.38
40155;BME280;25875;48.202;16.334;2023-07-20T12:28:07;98634.06;;;26.69;34.88
40155;BME280;25875;48.202;16.334;2023-07-20T12:30:34;98615.06;;;26.76;34.99
40155;BME280;25875;48.202;16.334;2023-07-20T12:33:03;98630.75;;;26.74;34.75
40155;BME280;25875;48.202;16.334;2023-07-20T12:35:30;98640.34;;;26.70;34.81
40155;BME280;25875;48.202;16.334;2023-07-20T12:37:58;98626.16;;;26.74;34.54
40155;BME280;25875;48.202;16.334;2023-07-20T12:40:25;98576.69;;;26.44;34.18
40155;BME280;25875;48.202;16.334;2023-07-20T12:42:52;98613.38;;;26.75;34.55
40155;BME280;25875;48.202;16.334;2023-07-20T12:45:18;98542.13;;;26.12;33.92
40155;BME280;25875;48.202;16.334;2023-07-20T12:47:45;98488.81;;;25.98;34.00
40155;BME280;25875;48.202;16.334;2023-07-20T12:50:14;98608.41;;;26.92;34.33
40155;BME280;25875;48.202;16.334;2023-07-20T12:52:41;98608.56;;;26.70;33.73
40155;BME280;25875;48.202;16.334;2023-07-20T12:55:09;98560.00;;;26.47;34.01
40155;BME280;25875;48.202;16.334;2023-07-20T12:57:36;98473.72;;;25.88;33.91
40155;BME280;25875;48.202;16.334;2023-07-20T13:00:05;98623.66;;;26.79;33.39